sensor_id;sensor_type;location;lat;lon;timestamp;P1;durP1;ratioP1;P2;durP2;ratioP2
9970;SDS011;5026;51.494;11.974;2023-08-06T00:00:54;11.13;;;4.35;;
9970;SDS011;5026;51.494;11.974;2023-08-06T00:03:21;13.13;;;4.80;;
9970;SDS011;5026;51.494;11.974;2023-08-06T00:05:48;6.95;;;4.05;;
9970;SDS011;5026;51.494;11.974;2023-08-06T00:08:15;10.18;;;4.60;;
9970;SDS011;5026;51.494;11.974;2023-08-06T00:10:42;9.13;;;4.95;;
9970;SDS011;5026;51.494;11.974;2023-08-06T00:13:09;8.18;;;4.30;;
9970;SDS011;5026;51.494;11.974;2023-08-06T00:15:37;8.60;;;4.72;;
9970;SDS011;5026;51.494;11.974;2023-08-06T00:18:04;7.93;;;4.40;;
9970;SDS011;5026;51.494;11.974;2023-08-06T00:20:31;9.50;;;4.55;;
9970;SDS011;5026;51.494;11.974;2023-08-06T00:22:58;9.60;;;4.50;;
9970;SDS011;5026;51.494;11.974;2023-08-06T00:25:25;10.00;;;4.68;;
9970;SDS011;5026;51.494;11.974;2023-08-06T00:27:52;10.82;;;4.35;;
9970;SDS011;5026;51.494;11.974;2023-08-06T00:30:19;13.38;;;5.30;;
9970;SDS011;5026;51.494;11.974;2023-08-06T00:32:47;8.25;;;4.10;;
9970;SDS011;5026;51.494;11.974;2023-08-06T00:35:14;10.77;;;4.82;;
9970;SDS011;5026;51.494;11.974;2023-08-06T00:37:41;10.40;;;4.65;;
9970;SDS011;5026;51.494;11.974;2023-08-06T00:40:09;6.75;;;4.18;;
9970;SDS011;5026;51.494;11.974;2023-08-06T00:42:35;10.15;;;5.05;;
9970;SDS011;5026;51.494;11.974;2023-08-06T00:45:03;10.82;;;4.90;;
9970;SDS011;5026;51.494;11.974;2023-08-06T00:47:30;11.45;;;5.88;;
9970;SDS011;5026;51.494;11.974;2023-08-06T00:49:59;11.75;;;5.28;;
9970;SDS011;5026;51.494;11.974;2023-08-06T00:52:26;8.75;;;5.32;;
9970;SDS011;5026;51.494;11.974;2023-08-06T00:54:53;10.73;;;5.18;;
9970;SDS011;5026;51.494;11.974;2023-08-06T00:57:20;9.98;;;5.13;;
9970;SDS011;5026;51.494;11.974;2023-08-06T00:59:50;8.27;;;4.97;;
9970;SDS011;5026;51.494;11.974;2023-08-06T01:02:17;9.63;;;5.43;;
9970;SDS011;5026;51.494;11.974;2023-08-06T01:04:44;10.30;;;5.40;;
9970;SDS011;5026;51.494;11.974;2023-08-06T01:07:14;9.52;;;4.70;;
9970;SDS011;5026;51.494;11.974;2023-08-06T01:09:45;9.80;;;5.45;;
9970;SDS011;5026;51.494;11.974;2023-08-06T01:12:18;17.55;;;7.13;;
9970;SDS011;5026;51.494;11.974;2023-08-06T01:14:53;8.32;;;4.40;;
9970;SDS011;5026;51.494;11.974;2023-08-06T01:17:27;8.05;;;2.85;;
9970;SDS011;5026;51.494;11.974;2023-08-06T01:19:55;10.82;;;3.75;;
9970;SDS011;5026;51.494;11.974;2023-08-06T01:22:24;4.80;;;2.53;;
9970;SDS011;5026;51.494;11.974;2023-08-06T01:24:51;8.88;;;3.28;;
9970;SDS011;5026;51.494;11.974;2023-08-06T01:27:21;6.38;;;2.22;;
9970;SDS011;5026;51.494;11.974;2023-08-06T01:29:52;4.55;;;2.30;;
9970;SDS011;5026;51.494;11.974;2023-08-06T01:32:24;8.88;;;2.80;;
9970;SDS011;5026;51.494;11.974;2023-08-06T01:34:54;5.53;;;2.15;;
9970;SDS011;5026;51.494;11.974;2023-08-06T01:37:21;7.50;;;2.70;;
9970;SDS011;5026;51.494;11.974;2023-08-06T01:39:50;5.40;;;2.35;;
9970;SDS011;5026;51.494;11.974;2023-08-06T01:42:18;6.55;;;2.70;;
9970;SDS011;5026;51.494;11.974;2023-08-06T01:44:45;3.78;;;1.90;;
9970;SDS011;5026;51.494;11.974;2023-08-06T01:47:12;4.63;;;2.00;;
9970;SDS011;5026;51.494;11.974;2023-08-06T01:49:39;5.35;;;2.33;;
9970;SDS011;5026;51.494;11.974;2023-08-06T01:52:07;4.35;;;2.20;;
9970;SDS011;5026;51.494;11.974;2023-08-06T01:54:34;6.50;;;2.35;;
9970;SDS011;5026;51.494;11.974;2023-08-06T01:57:03;5.07;;;2.15;;
9970;SDS011;5026;51.494;11.974;2023-08-06T01:59:30;7.85;;;3.42;;
9970;SDS011;5026;51.494;11.974;2023-08-06T02:01:58;3.92;;;2.05;;
9970;SDS011;5026;51.494;11.974;2023-08-06T02:04:25;6.93;;;2.55;;
9970;SDS011;5026;51.494;11.974;2023-08-06T02:06:52;4.28;;;2.30;;
9970;SDS011;5026;51.494;11.974;2023-08-06T02:09:19;7.28;;;2.63;;
9970;SDS011;5026;51.494;11.974;2023-08-06T02:11:46;6.78;;;2.85;;
9970;SDS011;5026;51.494;11.974;2023-08-06T02:14:14;5.57;;;2.47;;
9970;SDS011;5026;51.494;11.974;2023-08-06T02:16:41;7.30;;;2.60;;
9970;SDS011;5026;51.494;11.974;2023-08-06T02:19:08;3.65;;;1.90;;
9970;SDS011;5026;51.494;11.974;2023-08-06T02:21:35;5.88;;;2.45;;
9970;SDS011;5026;51.494;11.974;2023-08-06T02:24:02;4.03;;;2.40;;
9970;SDS011;5026;51.494;11.974;2023-08-06T02:26:29;4.28;;;2.00;;
9970;SDS011;5026;51.494;11.974;2023-08-06T02:28:57;5.00;;;2.28;;
9970;SDS011;5026;51.494;11.974;2023-08-06T02:31:26;4.13;;;2.05;;
9970;SDS011;5026;51.494;11.974;2023-08-06T02:33:52;3.80;;;2.15;;
9970;SDS011;5026;51.494;11.974;2023-08-06T02:36:20;5.43;;;2.38;;
9970;SDS011;5026;51.494;11.974;2023-08-06T02:38:47;3.83;;;2.08;;
9970;SDS011;5026;51.494;11.974;2023-08-06T02:41:14;6.70;;;2.70;;
9970;SDS011;5026;51.494;11.974;2023-08-06T02:43:40;5.97;;;2.35;;
9970;SDS011;5026;51.494;11.974;2023-08-06T02:46:07;7.88;;;3.05;;
9970;SDS011;5026;51.494;11.974;2023-08-06T02:48:36;7.65;;;2.60;;
9970;SDS011;5026;51.494;11.974;2023-08-06T02:51:03;5.32;;;2.25;;
9970;SDS011;5026;51.494;11.974;2023-08-06T02:53:30;7.05;;;2.70;;
9970;SDS011;5026;51.494;11.974;2023-08-06T02:55:57;4.82;;;2.70;;
9970;SDS011;5026;51.494;11.974;2023-08-06T02:58:25;4.88;;;2.45;;
9970;SDS011;5026;51.494;11.974;2023-08-06T03:00:58;5.55;;;2.83;;
9970;SDS011;5026;51.494;11.974;2023-08-06T03:03:26;6.45;;;2.90;;
9970;SDS011;5026;51.494;11.974;2023-08-06T03:05:55;4.88;;;2.75;;
9970;SDS011;5026;51.494;11.974;2023-08-06T03:08:21;6.07;;;2.85;;
9970;SDS011;5026;51.494;11.974;2023-08-06T03:10:49;5.55;;;2.65;;
9970;SDS011;5026;51.494;11.974;2023-08-06T03:13:16;4.97;;;2.80;;
9970;SDS011;5026;51.494;11.974;2023-08-06T03:15:43;7.90;;;2.90;;
9970;SDS011;5026;51.494;11.974;2023-08-06T03:18:10;8.18;;;3.63;;
9970;SDS011;5026;51.494;11.974;2023-08-06T03:20:37;5.68;;;3.20;;
9970;SDS011;5026;51.494;11.974;2023-08-06T03:23:05;5.50;;;2.92;;
9970;SDS011;5026;51.494;11.974;2023-08-06T03:25:34;6.72;;;3.67;;
9970;SDS011;5026;51.494;11.974;2023-08-06T03:28:02;4.00;;;2.70;;
9970;SDS011;5026;51.494;11.974;2023-08-06T03:30:29;9.95;;;3.35;;
9970;SDS011;5026;51.494;11.974;2023-08-06T03:32:56;9.18;;;2.90;;
9970;SDS011;5026;51.494;11.974;2023-08-06T03:35:23;5.20;;;3.00;;
9970;SDS011;5026;51.494;11.974;2023-08-06T03:37:50;8.05;;;3.28;;
9970;SDS011;5026;51.494;11.974;2023-08-06T03:40:19;6.93;;;3.65;;
9970;SDS011;5026;51.494;11.974;2023-08-06T03:42:45;10.02;;;3.63;;
9970;SDS011;5026;51.494;11.974;2023-08-06T03:45:13;9.10;;;3.80;;
9970;SDS011;5026;51.494;11.974;2023-08-06T03:47:40;7.65;;;3.72;;
9970;SDS011;5026;51.494;11.974;2023-08-06T03:50:07;5.65;;;3.30;;
9970;SDS011;5026;51.494;11.974;2023-08-06T03:52:34;11.07;;;3.92;;
9970;SDS011;5026;51.494;11.974;2023-08-06T03:55:01;4.55;;;2.90;;
9970;SDS011;5026;51.494;11.974;2023-08-06T03:57:29;8.88;;;3.42;;
9970;SDS011;5026;51.494;11.974;2023-08-06T03:59:56;8.65;;;3.58;;
9970;SDS011;5026;51.494;11.974;2023-08-06T04:02:23;5.93;;;3.08;;
9970;SDS011;5026;51.494;11.974;2023-08-06T04:04:50;6.55;;;3.33;;
9970;SDS011;5026;51.494;11.974;2023-08-06T04:07:18;9.35;;;3.67;;
9970;SDS011;5026;51.494;11.974;2023-08-06T04:09:52;5.50;;;3.17;;
9970;SDS011;5026;51.494;11.974;2023-08-06T04:12:20;6.97;;;3.08;;
9970;SDS011;5026;51.494;11.974;2023-08-06T04:14:49;6.43;;;3.53;;
9970;SDS011;5026;51.494;11.974;2023-08-06T04:17:16;6.13;;;3.00;;
9970;SDS011;5026;51.494;11.974;2023-08-06T04:19:45;8.73;;;2.90;;
9970;SDS011;5026;51.494;11.974;2023-08-06T04:22:13;7.05;;;3.22;;
9970;SDS011;5026;51.494;11.974;2023-08-06T04:24:41;8.35;;;3.20;;
9970;SDS011;5026;51.494;11.974;2023-08-06T04:27:08;5.40;;;2.72;;
9970;SDS011;5026;51.494;11.974;2023-08-06T04:29:35;6.63;;;3.13;;
9970;SDS011;5026;51.494;11.974;2023-08-06T04:32:05;4.13;;;2.47;;
9970;SDS011;5026;51.494;11.974;2023-08-06T04:34:34;5.97;;;3.17;;
9970;SDS011;5026;51.494;11.974;2023-08-06T04:37:01;5.43;;;2.33;;
9970;SDS011;5026;51.494;11.974;2023-08-06T04:39:29;4.80;;;2.75;;
9970;SDS011;5026;51.494;11.974;2023-08-06T04:41:56;4.15;;;2.60;;
9970;SDS011;5026;51.494;11.974;2023-08-06T04:44:22;5.03;;;2.60;;
9970;SDS011;5026;51.494;11.974;2023-08-06T04:46:50;4.38;;;2.92;;
9970;SDS011;5026;51.494;11.974;2023-08-06T04:49:19;5.03;;;2.40;;
9970;SDS011;5026;51.494;11.974;2023-08-06T04:51:46;3.33;;;2.28;;
9970;SDS011;5026;51.494;11.974;2023-08-06T04:54:13;4.88;;;2.42;;
9970;SDS011;5026;51.494;11.974;2023-08-06T04:56:40;8.20;;;2.75;;
9970;SDS011;5026;51.494;11.974;2023-08-06T04:59:07;6.30;;;2.20;;
9970;SDS011;5026;51.494;11.974;2023-08-06T05:01:34;4.07;;;2.10;;
9970;SDS011;5026;51.494;11.974;2023-08-06T05:04:01;5.18;;;2.78;;
9970;SDS011;5026;51.494;11.974;2023-08-06T05:06:30;3.75;;;2.35;;
9970;SDS011;5026;51.494;11.974;2023-08-06T05:08:57;5.55;;;2.55;;
9970;SDS011;5026;51.494;11.974;2023-08-06T05:11:24;4.22;;;2.33;;
9970;SDS011;5026;51.494;11.974;2023-08-06T05:13:51;7.40;;;2.33;;
9970;SDS011;5026;51.494;11.974;2023-08-06T05:16:17;4.75;;;2.25;;
9970;SDS011;5026;51.494;11.974;2023-08-06T05:18:44;3.75;;;2.30;;
9970;SDS011;5026;51.494;11.974;2023-08-06T05:21:11;3.60;;;2.15;;
9970;SDS011;5026;51.494;11.974;2023-08-06T05:23:40;3.78;;;2.13;;
9970;SDS011;5026;51.494;11.974;2023-08-06T05:26:07;4.38;;;2.42;;
9970;SDS011;5026;51.494;11.974;2023-08-06T05:28:34;3.53;;;2.10;;
9970;SDS011;5026;51.494;11.974;2023-08-06T05:31:02;3.15;;;1.90;;
9970;SDS011;5026;51.494;11.974;2023-08-06T05:33:30;4.35;;;2.20;;
9970;SDS011;5026;51.494;11.974;2023-08-06T05:35:57;3.28;;;1.98;;
9970;SDS011;5026;51.494;11.974;2023-08-06T05:38:24;5.13;;;2.25;;
9970;SDS011;5026;51.494;11.974;2023-08-06T05:40:53;4.43;;;2.40;;
9970;SDS011;5026;51.494;11.974;2023-08-06T05:43:20;3.38;;;2.33;;
9970;SDS011;5026;51.494;11.974;2023-08-06T05:45:48;4.60;;;2.60;;
9970;SDS011;5026;51.494;11.974;2023-08-06T05:48:16;4.03;;;2.38;;
9970;SDS011;5026;51.494;11.974;2023-08-06T05:50:43;6.22;;;3.03;;
9970;SDS011;5026;51.494;11.974;2023-08-06T05:53:10;3.50;;;2.28;;
9970;SDS011;5026;51.494;11.974;2023-08-06T05:55:38;7.28;;;2.40;;
9970;SDS011;5026;51.494;11.974;2023-08-06T05:58:06;3.90;;;2.30;;
9970;SDS011;5026;51.494;11.974;2023-08-06T06:00:33;5.20;;;2.67;;
9970;SDS011;5026;51.494;11.974;2023-08-06T06:03:00;4.32;;;2.45;;
9970;SDS011;5026;51.494;11.974;2023-08-06T06:05:27;3.92;;;2.20;;
9970;SDS011;5026;51.494;11.974;2023-08-06T06:07:54;4.47;;;2.38;;
9970;SDS011;5026;51.494;11.974;2023-08-06T06:10:21;5.13;;;2.83;;
9970;SDS011;5026;51.494;11.974;2023-08-06T06:12:48;3.72;;;2.40;;
9970;SDS011;5026;51.494;11.974;2023-08-06T06:15:17;2.85;;;2.00;;
9970;SDS011;5026;51.494;11.974;2023-08-06T06:17:44;3.80;;;2.35;;
9970;SDS011;5026;51.494;11.974;2023-08-06T06:20:11;5.10;;;2.60;;
9970;SDS011;5026;51.494;11.974;2023-08-06T06:22:38;5.25;;;2.20;;
9970;SDS011;5026;51.494;11.974;2023-08-06T06:25:05;5.63;;;2.40;;
9970;SDS011;5026;51.494;11.974;2023-08-06T06:27:33;7.00;;;3.33;;
9970;SDS011;5026;51.494;11.974;2023-08-06T06:30:00;4.72;;;2.15;;
9970;SDS011;5026;51.494;11.974;2023-08-06T06:32:29;4.07;;;2.33;;
9970;SDS011;5026;51.494;11.974;2023-08-06T06:34:56;6.30;;;2.92;;
9970;SDS011;5026;51.494;11.974;2023-08-06T06:37:23;6.95;;;2.72;;
9970;SDS011;5026;51.494;11.974;2023-08-06T06:39:50;4.30;;;2.35;;
9970;SDS011;5026;51.494;11.974;2023-08-06T06:42:17;4.53;;;2.53;;
9970;SDS011;5026;51.494;11.974;2023-08-06T06:44:45;4.35;;;2.35;;
9970;SDS011;5026;51.494;11.974;2023-08-06T06:47:11;3.78;;;2.28;;
9970;SDS011;5026;51.494;11.974;2023-08-06T06:49:39;3.75;;;2.10;;
9970;SDS011;5026;51.494;11.974;2023-08-06T06:52:07;2.65;;;1.90;;
9970;SDS011;5026;51.494;11.974;2023-08-06T06:54:34;5.07;;;2.63;;
9970;SDS011;5026;51.494;11.974;2023-08-06T06:57:01;4.68;;;2.55;;
9970;SDS011;5026;51.494;11.974;2023-08-06T06:59:28;4.80;;;2.42;;
9970;SDS011;5026;51.494;11.974;2023-08-06T07:01:55;4.30;;;2.38;;
9970;SDS011;5026;51.494;11.974;2023-08-06T07:04:22;4.15;;;2.28;;
9970;SDS011;5026;51.494;11.974;2023-08-06T07:06:50;5.88;;;2.47;;
9970;SDS011;5026;51.494;11.974;2023-08-06T07:09:18;4.13;;;2.25;;
9970;SDS011;5026;51.494;11.974;2023-08-06T07:11:45;3.90;;;2.50;;
9970;SDS011;5026;51.494;11.974;2023-08-06T07:14:12;3.53;;;2.25;;
9970;SDS011;5026;51.494;11.974;2023-08-06T07:16:40;4.57;;;2.50;;
9970;SDS011;5026;51.494;11.974;2023-08-06T07:19:07;4.35;;;2.25;;
9970;SDS011;5026;51.494;11.974;2023-08-06T07:21:34;4.72;;;2.20;;
9970;SDS011;5026;51.494;11.974;2023-08-06T07:24:02;2.53;;;1.80;;
9970;SDS011;5026;51.494;11.974;2023-08-06T07:26:29;3.80;;;2.35;;
9970;SDS011;5026;51.494;11.974;2023-08-06T07:28:56;4.38;;;1.88;;
9970;SDS011;5026;51.494;11.974;2023-08-06T07:31:23;5.20;;;2.60;;
9970;SDS011;5026;51.494;11.974;2023-08-06T07:33:50;5.30;;;2.17;;
9970;SDS011;5026;51.494;11.974;2023-08-06T07:36:17;4.43;;;2.22;;
9970;SDS011;5026;51.494;11.974;2023-08-06T07:38:45;4.13;;;2.15;;
9970;SDS011;5026;51.494;11.974;2023-08-06T07:41:15;3.35;;;2.00;;
9970;SDS011;5026;51.494;11.974;2023-08-06T07:43:42;4.00;;;2.10;;
9970;SDS011;5026;51.494;11.974;2023-08-06T07:46:09;3.70;;;2.33;;
9970;SDS011;5026;51.494;11.974;2023-08-06T07:48:38;6.30;;;2.53;;
9970;SDS011;5026;51.494;11.974;2023-08-06T07:51:05;3.05;;;2.13;;
9970;SDS011;5026;51.494;11.974;2023-08-06T07:53:32;4.47;;;2.40;;
9970;SDS011;5026;51.494;11.974;2023-08-06T07:55:59;3.88;;;2.13;;
9970;SDS011;5026;51.494;11.974;2023-08-06T07:58:28;5.03;;;2.35;;
9970;SDS011;5026;51.494;11.974;2023-08-06T08:00:56;4.05;;;2.30;;
9970;SDS011;5026;51.494;11.974;2023-08-06T08:03:23;4.78;;;1.92;;
9970;SDS011;5026;51.494;11.974;2023-08-06T08:05:53;4.53;;;2.47;;
9970;SDS011;5026;51.494;11.974;2023-08-06T08:08:22;6.30;;;2.60;;
9970;SDS011;5026;51.494;11.974;2023-08-06T08:10:49;8.50;;;2.85;;
9970;SDS011;5026;51.494;11.974;2023-08-06T08:13:16;5.53;;;2.28;;
9970;SDS011;5026;51.494;11.974;2023-08-06T08:15:44;6.72;;;2.40;;
9970;SDS011;5026;51.494;11.974;2023-08-06T08:18:11;6.22;;;2.78;;
9970;SDS011;5026;51.494;11.974;2023-08-06T08:20:38;4.80;;;2.10;;
9970;SDS011;5026;51.494;11.974;2023-08-06T08:23:05;3.90;;;2.30;;
9970;SDS011;5026;51.494;11.974;2023-08-06T08:25:32;4.63;;;2.28;;
9970;SDS011;5026;51.494;11.974;2023-08-06T08:27:59;9.15;;;3.20;;
9970;SDS011;5026;51.494;11.974;2023-08-06T08:30:26;6.25;;;2.75;;
9970;SDS011;5026;51.494;11.974;2023-08-06T08:32:54;9.02;;;2.97;;
9970;SDS011;5026;51.494;11.974;2023-08-06T08:35:21;6.97;;;2.72;;
9970;SDS011;5026;51.494;11.974;2023-08-06T08:37:48;4.70;;;1.98;;
9970;SDS011;5026;51.494;11.974;2023-08-06T08:40:16;5.25;;;2.25;;
9970;SDS011;5026;51.494;11.974;2023-08-06T08:42:43;7.00;;;2.80;;
9970;SDS011;5026;51.494;11.974;2023-08-06T08:45:11;5.72;;;2.25;;
9970;SDS011;5026;51.494;11.974;2023-08-06T08:47:39;6.07;;;2.40;;
9970;SDS011;5026;51.494;11.974;2023-08-06T08:50:09;3.88;;;2.45;;
9970;SDS011;5026;51.494;11.974;2023-08-06T08:52:38;10.27;;;3.20;;
9970;SDS011;5026;51.494;11.974;2023-08-06T08:55:07;6.20;;;2.67;;
9970;SDS011;5026;51.494;11.974;2023-08-06T08:57:34;4.85;;;2.33;;
9970;SDS011;5026;51.494;11.974;2023-08-06T09:00:01;4.35;;;1.95;;
9970;SDS011;5026;51.494;11.974;2023-08-06T09:02:28;3.47;;;2.15;;
9970;SDS011;5026;51.494;11.974;2023-08-06T09:04:57;4.97;;;2.40;;
9970;SDS011;5026;51.494;11.974;2023-08-06T09:07:28;7.90;;;3.47;;
9970;SDS011;5026;51.494;11.974;2023-08-06T09:09:56;7.32;;;2.55;;
9970;SDS011;5026;51.494;11.974;2023-08-06T09:12:24;5.72;;;2.22;;
9970;SDS011;5026;51.494;11.974;2023-08-06T09:14:52;5.38;;;2.72;;
9970;SDS011;5026;51.494;11.974;2023-08-06T09:17:18;5.80;;;2.55;;
9970;SDS011;5026;51.494;11.974;2023-08-06T09:19:46;5.85;;;2.80;;
9970;SDS011;5026;51.494;11.974;2023-08-06T09:22:14;4.15;;;2.20;;
9970;SDS011;5026;51.494;11.974;2023-08-06T09:24:43;8.27;;;3.35;;
9970;SDS011;5026;51.494;11.974;2023-08-06T09:27:10;6.72;;;2.25;;
9970;SDS011;5026;51.494;11.974;2023-08-06T09:29:42;4.75;;;2.13;;
9970;SDS011;5026;51.494;11.974;2023-08-06T09:32:10;7.40;;;2.80;;
9970;SDS011;5026;51.494;11.974;2023-08-06T09:34:38;6.43;;;2.80;;
9970;SDS011;5026;51.494;11.974;2023-08-06T09:37:05;4.63;;;2.28;;
9970;SDS011;5026;51.494;11.974;2023-08-06T09:39:34;4.15;;;2.00;;
9970;SDS011;5026;51.494;11.974;2023-08-06T09:42:03;3.88;;;2.33;;
9970;SDS011;5026;51.494;11.974;2023-08-06T09:44:31;5.28;;;2.58;;
9970;SDS011;5026;51.494;11.974;2023-08-06T09:46:59;4.97;;;2.35;;
9970;SDS011;5026;51.494;11.974;2023-08-06T09:49:27;4.35;;;2.20;;
9970;SDS011;5026;51.494;11.974;2023-08-06T09:51:54;4.72;;;2.38;;
9970;SDS011;5026;51.494;11.974;2023-08-06T09:54:23;6.20;;;2.75;;
9970;SDS011;5026;51.494;11.974;2023-08-06T09:56:52;6.07;;;2.50;;
9970;SDS011;5026;51.494;11.974;2023-08-06T09:59:20;3.72;;;2.17;;
9970;SDS011;5026;51.494;11.974;2023-08-06T10:01:47;4.93;;;2.42;;
9970;SDS011;5026;51.494;11.974;2023-08-06T10:04:15;6.30;;;2.70;;
9970;SDS011;5026;51.494;11.974;2023-08-06T10:06:43;5.07;;;2.28;;
9970;SDS011;5026;51.494;11.974;2023-08-06T10:09:13;3.97;;;2.25;;
9970;SDS011;5026;51.494;11.974;2023-08-06T10:11:40;5.93;;;2.30;;
9970;SDS011;5026;51.494;11.974;2023-08-06T10:14:12;5.65;;;2.85;;
9970;SDS011;5026;51.494;11.974;2023-08-06T10:16:42;5.50;;;2.50;;
9970;SDS011;5026;51.494;11.974;2023-08-06T10:19:10;4.93;;;2.03;;
9970;SDS011;5026;51.494;11.974;2023-08-06T10:21:37;4.55;;;2.30;;
9970;SDS011;5026;51.494;11.974;2023-08-06T10:24:06;4.35;;;2.20;;
9970;SDS011;5026;51.494;11.974;2023-08-06T10:26:35;5.75;;;2.55;;
9970;SDS011;5026;51.494;11.974;2023-08-06T10:32:04;3.88;;;2.20;;
9970;SDS011;5026;51.494;11.974;2023-08-06T10:37:22;5.47;;;2.08;;
9970;SDS011;5026;51.494;11.974;2023-08-06T10:39:50;3.30;;;2.00;;
9970;SDS011;5026;51.494;11.974;2023-08-06T10:42:21;4.30;;;2.13;;
9970;SDS011;5026;51.494;11.974;2023-08-06T10:47:31;3.05;;;1.52;;
9970;SDS011;5026;51.494;11.974;2023-08-06T10:50:04;2.40;;;1.73;;
9970;SDS011;5026;51.494;11.974;2023-08-06T10:52:32;4.28;;;2.33;;
9970;SDS011;5026;51.494;11.974;2023-08-06T10:54:59;4.80;;;2.22;;
9970;SDS011;5026;51.494;11.974;2023-08-06T10:57:27;6.30;;;2.63;;
9970;SDS011;5026;51.494;11.974;2023-08-06T10:59:54;3.20;;;1.98;;
9970;SDS011;5026;51.494;11.974;2023-08-06T11:02:20;4.32;;;2.33;;
9970;SDS011;5026;51.494;11.974;2023-08-06T11:04:49;2.45;;;1.70;;
9970;SDS011;5026;51.494;11.974;2023-08-06T11:07:16;4.20;;;1.85;;
9970;SDS011;5026;51.494;11.974;2023-08-06T11:09:43;3.38;;;1.85;;
9970;SDS011;5026;51.494;11.974;2023-08-06T11:12:10;3.78;;;1.90;;
9970;SDS011;5026;51.494;11.974;2023-08-06T11:14:37;4.90;;;2.25;;
9970;SDS011;5026;51.494;11.974;2023-08-06T11:17:04;4.40;;;2.03;;
9970;SDS011;5026;51.494;11.974;2023-08-06T11:19:32;4.82;;;1.38;;
9970;SDS011;5026;51.494;11.974;2023-08-06T11:22:00;5.25;;;2.15;;
9970;SDS011;5026;51.494;11.974;2023-08-06T11:24:27;4.15;;;1.70;;
9970;SDS011;5026;51.494;11.974;2023-08-06T11:26:55;3.92;;;1.73;;
9970;SDS011;5026;51.494;11.974;2023-08-06T11:29:22;2.45;;;1.45;;
9970;SDS011;5026;51.494;11.974;2023-08-06T11:31:49;1.52;;;1.42;;
9970;SDS011;5026;51.494;11.974;2023-08-06T11:34:16;2.85;;;1.65;;
9970;SDS011;5026;51.494;11.974;2023-08-06T11:36:43;3.30;;;1.80;;
9970;SDS011;5026;51.494;11.974;2023-08-06T11:39:11;2.75;;;1.65;;
9970;SDS011;5026;51.494;11.974;2023-08-06T11:41:38;3.42;;;1.60;;
9970;SDS011;5026;51.494;11.974;2023-08-06T11:44:07;5.32;;;1.88;;
9970;SDS011;5026;51.494;11.974;2023-08-06T11:46:49;3.50;;;1.85;;
9970;SDS011;5026;51.494;11.974;2023-08-06T11:49:17;2.70;;;1.60;;
9970;SDS011;5026;51.494;11.974;2023-08-06T11:51:46;2.28;;;1.58;;
9970;SDS011;5026;51.494;11.974;2023-08-06T11:54:15;2.72;;;1.48;;
9970;SDS011;5026;51.494;11.974;2023-08-06T11:56:42;3.58;;;1.67;;
9970;SDS011;5026;51.494;11.974;2023-08-06T11:59:12;1.58;;;1.20;;
9970;SDS011;5026;51.494;11.974;2023-08-06T12:01:39;2.05;;;1.40;;
9970;SDS011;5026;51.494;11.974;2023-08-06T12:04:06;2.17;;;1.25;;
9970;SDS011;5026;51.494;11.974;2023-08-06T12:06:41;4.18;;;2.00;;
9970;SDS011;5026;51.494;11.974;2023-08-06T12:09:09;4.70;;;1.98;;
9970;SDS011;5026;51.494;11.974;2023-08-06T12:11:37;4.63;;;2.40;;
9970;SDS011;5026;51.494;11.974;2023-08-06T12:14:04;5.30;;;2.03;;
9970;SDS011;5026;51.494;11.974;2023-08-06T12:16:32;6.35;;;2.63;;
9970;SDS011;5026;51.494;11.974;2023-08-06T12:18:58;3.15;;;1.55;;
9970;SDS011;5026;51.494;11.974;2023-08-06T12:21:25;4.75;;;2.25;;
9970;SDS011;5026;51.494;11.974;2023-08-06T12:23:52;6.90;;;2.88;;
9970;SDS011;5026;51.494;11.974;2023-08-06T12:26:20;6.00;;;2.28;;
9970;SDS011;5026;51.494;11.974;2023-08-06T12:28:48;5.60;;;2.45;;
9970;SDS011;5026;51.494;11.974;2023-08-06T12:31:15;6.35;;;2.13;;
9970;SDS011;5026;51.494;11.974;2023-08-06T12:33:42;4.55;;;1.98;;
9970;SDS011;5026;51.494;11.974;2023-08-06T12:36:09;6.53;;;2.38;;
9970;SDS011;5026;51.494;11.974;2023-08-06T12:38:36;7.30;;;2.80;;
9970;SDS011;5026;51.494;11.974;2023-08-06T12:41:03;4.95;;;2.30;;
9970;SDS011;5026;51.494;11.974;2023-08-06T12:43:30;5.43;;;2.33;;
9970;SDS011;5026;51.494;11.974;2023-08-06T12:45:59;5.65;;;2.30;;
9970;SDS011;5026;51.494;11.974;2023-08-06T12:48:26;4.97;;;2.40;;
9970;SDS011;5026;51.494;11.974;2023-08-06T12:50:52;5.82;;;2.38;;
9970;SDS011;5026;51.494;11.974;2023-08-06T12:53:19;5.15;;;2.10;;
9970;SDS011;5026;51.494;11.974;2023-08-06T12:55:48;5.90;;;2.13;;
9970;SDS011;5026;51.494;11.974;2023-08-06T12:58:15;5.32;;;1.98;;
9970;SDS011;5026;51.494;11.974;2023-08-06T13:00:42;3.60;;;1.90;;
9970;SDS011;5026;51.494;11.974;2023-08-06T13:03:10;2.53;;;1.58;;
9970;SDS011;5026;51.494;11.974;2023-08-06T13:05:37;3.72;;;1.52;;
9970;SDS011;5026;51.494;11.974;2023-08-06T13:08:04;5.32;;;2.25;;
9970;SDS011;5026;51.494;11.974;2023-08-06T13:10:31;4.63;;;2.10;;
9970;SDS011;5026;51.494;11.974;2023-08-06T13:12:58;5.75;;;2.08;;
9970;SDS011;5026;51.494;11.974;2023-08-06T13:15:25;5.75;;;2.55;;
9970;SDS011;5026;51.494;11.974;2023-08-06T13:17:52;4.90;;;1.95;;
9970;SDS011;5026;51.494;11.974;2023-08-06T13:20:21;5.47;;;2.28;;
9970;SDS011;5026;51.494;11.974;2023-08-06T13:22:48;5.80;;;2.65;;
9970;SDS011;5026;51.494;11.974;2023-08-06T13:25:18;4.40;;;2.05;;
9970;SDS011;5026;51.494;11.974;2023-08-06T13:27:45;5.50;;;2.75;;
9970;SDS011;5026;51.494;11.974;2023-08-06T13:30:12;4.82;;;2.25;;
9970;SDS011;5026;51.494;11.974;2023-08-06T13:32:39;7.68;;;2.75;;
9970;SDS011;5026;51.494;11.974;2023-08-06T13:35:07;6.68;;;2.70;;
9970;SDS011;5026;51.494;11.974;2023-08-06T13:37:35;9.30;;;3.20;;
9970;SDS011;5026;51.494;11.974;2023-08-06T13:40:02;5.72;;;2.60;;
9970;SDS011;5026;51.494;11.974;2023-08-06T13:42:29;7.75;;;3.10;;
9970;SDS011;5026;51.494;11.974;2023-08-06T13:44:57;7.05;;;2.72;;
9970;SDS011;5026;51.494;11.974;2023-08-06T13:47:28;6.70;;;2.55;;
9970;SDS011;5026;51.494;11.974;2023-08-06T13:49:55;4.32;;;2.10;;
9970;SDS011;5026;51.494;11.974;2023-08-06T13:52:22;4.57;;;1.80;;
9970;SDS011;5026;51.494;11.974;2023-08-06T13:54:50;6.80;;;2.50;;
9970;SDS011;5026;51.494;11.974;2023-08-06T13:57:17;5.15;;;2.22;;
9970;SDS011;5026;51.494;11.974;2023-08-06T13:59:45;5.53;;;2.40;;
9970;SDS011;5026;51.494;11.974;2023-08-06T14:02:11;5.28;;;2.30;;
9970;SDS011;5026;51.494;11.974;2023-08-06T14:04:39;6.38;;;2.65;;
9970;SDS011;5026;51.494;11.974;2023-08-06T14:07:06;4.22;;;1.88;;
9970;SDS011;5026;51.494;11.974;2023-08-06T14:09:33;5.15;;;2.13;;
9970;SDS011;5026;51.494;11.974;2023-08-06T14:12:02;6.55;;;2.17;;
9970;SDS011;5026;51.494;11.974;2023-08-06T14:14:30;7.93;;;2.65;;
9970;SDS011;5026;51.494;11.974;2023-08-06T14:16:57;5.85;;;2.38;;
9970;SDS011;5026;51.494;11.974;2023-08-06T14:19:24;5.40;;;2.42;;
9970;SDS011;5026;51.494;11.974;2023-08-06T14:21:51;3.42;;;1.52;;
9970;SDS011;5026;51.494;11.974;2023-08-06T14:24:18;3.78;;;1.50;;
9970;SDS011;5026;51.494;11.974;2023-08-06T14:26:45;7.88;;;2.25;;
9970;SDS011;5026;51.494;11.974;2023-08-06T14:29:13;8.23;;;2.47;;
9970;SDS011;5026;51.494;11.974;2023-08-06T14:31:41;6.85;;;2.33;;
9970;SDS011;5026;51.494;11.974;2023-08-06T14:34:08;5.28;;;2.05;;
9970;SDS011;5026;51.494;11.974;2023-08-06T14:36:35;6.75;;;2.67;;
9970;SDS011;5026;51.494;11.974;2023-08-06T14:39:02;7.65;;;2.55;;
9970;SDS011;5026;51.494;11.974;2023-08-06T14:41:29;6.10;;;1.95;;
9970;SDS011;5026;51.494;11.974;2023-08-06T14:43:56;6.35;;;2.45;;
9970;SDS011;5026;51.494;11.974;2023-08-06T14:46:25;5.32;;;2.08;;
9970;SDS011;5026;51.494;11.974;2023-08-06T14:48:52;9.98;;;3.08;;
9970;SDS011;5026;51.494;11.974;2023-08-06T14:51:19;7.75;;;2.70;;
9970;SDS011;5026;51.494;11.974;2023-08-06T14:53:47;7.88;;;2.58;;
9970;SDS011;5026;51.494;11.974;2023-08-06T14:56:15;8.45;;;2.92;;
9970;SDS011;5026;51.494;11.974;2023-08-06T14:58:42;9.80;;;3.10;;
9970;SDS011;5026;51.494;11.974;2023-08-06T15:01:09;7.20;;;2.45;;
9970;SDS011;5026;51.494;11.974;2023-08-06T15:03:37;8.73;;;2.95;;
9970;SDS011;5026;51.494;11.974;2023-08-06T15:06:04;10.23;;;3.10;;
9970;SDS011;5026;51.494;11.974;2023-08-06T15:08:32;6.82;;;2.95;;
9970;SDS011;5026;51.494;11.974;2023-08-06T15:11:00;11.88;;;3.67;;